createdAt,value
2023-01-20T00:00:22.739Z,97611.58
2023-01-20T00:03:15.815Z,97614.40
2023-01-20T00:05:58.189Z,97618.58
2023-01-20T00:08:30.843Z,97623.02
2023-01-20T00:11:09.194Z,97627.77
2023-01-20T00:13:42.427Z,97626.92
2023-01-20T00:16:19.544Z,97628.65
2023-01-20T00:18:58.067Z,97640.12
2023-01-20T00:21:36.973Z,97643.48
2023-01-20T00:24:14.860Z,97644.41
2023-01-20T00:26:50.485Z,97638.48
2023-01-20T00:29:26.898Z,97642.45
2023-01-20T00:31:59.507Z,97644.27
2023-01-20T00:34:32.166Z,97645.25
2023-01-20T00:37:07.980Z,97649.54
2023-01-20T00:39:40.515Z,97648.80
2023-01-20T00:42:14.889Z,97653.11
2023-01-20T00:44:51.387Z,97649.70
2023-01-20T00:47:26.890Z,97650.11
2023-01-20T00:49:59.245Z,97651.55
2023-01-20T00:52:31.738Z,97653.37
2023-01-20T00:55:04.843Z,97657.42
2023-01-20T00:57:37.215Z,97659.44
2023-01-20T01:00:12.041Z,97657.51
2023-01-20T01:02:44.495Z,97651.21
2023-01-20T01:05:17.786Z,97645.77
2023-01-20T01:07:52.763Z,97640.07
2023-01-20T01:10:27.477Z,97645.16
2023-01-20T01:13:05.365Z,97646.71
2023-01-20T01:15:38.029Z,97648.20
2023-01-20T01:18:10.359Z,97652.49
2023-01-20T01:20:44.859Z,97661.54
2023-01-20T01:23:17.306Z,97672.05
2023-01-20T01:25:49.686Z,97683.35
2023-01-20T01:28:22.188Z,97694.20
2023-01-20T01:30:54.790Z,97700.00
2023-01-20T01:33:27.293Z,97698.17
2023-01-20T01:36:01.066Z,97696.40
2023-01-20T01:38:33.444Z,97695.21
2023-01-20T01:41:05.918Z,97694.89
2023-01-20T01:43:40.620Z,97685.09
2023-01-20T01:46:13.405Z,97685.34
2023-01-20T01:48:47.253Z,97690.96
2023-01-20T01:51:23.922Z,97697.83
2023-01-20T01:54:01.750Z,97701.05
2023-01-20T01:56:35.192Z,97701.95
2023-01-20T01:59:08.120Z,97705.52
2023-01-20T02:01:44.592Z,97700.55
2023-01-20T02:04:21.986Z,97706.73
2023-01-20T02:06:57.759Z,97711.71
2023-01-20T02:09:31.931Z,97716.46
2023-01-20T02:12:09.703Z,97713.14
2023-01-20T02:14:46.057Z,97712.39
2023-01-20T02:17:26.883Z,97708.79
2023-01-20T02:20:27.735Z,97708.75
2023-01-20T02:23:08.780Z,97715.35
2023-01-20T02:26:14.285Z,97720.50
2023-01-20T02:29:18.119Z,97712.92
2023-01-20T02:32:14.975Z,97712.61
2023-01-20T02:34:56.006Z,97721.86
2023-01-20T02:37:40.137Z,97734.65
2023-01-20T02:40:31.298Z,97735.62
2023-01-20T02:43:13.759Z,97736.67
2023-01-20T02:45:52.213Z,97738.52
2023-01-20T02:48:29.881Z,97740.16
2023-01-20T02:51:08.444Z,97739.33
2023-01-20T02:53:47.805Z,97730.52
2023-01-20T02:56:26.969Z,97723.52
2023-01-20T02:59:03.719Z,97715.88
2023-01-20T03:01:41.423Z,97711.19
2023-01-20T03:04:19.542Z,97710.80
2023-01-20T03:06:56.211Z,97716.72
2023-01-20T03:09:37.064Z,97718.55
2023-01-20T03:12:16.329Z,97729.20
2023-01-20T03:14:52.081Z,97740.73
2023-01-20T03:17:26.081Z,97752.88
2023-01-20T03:19:58.703Z,97769.66
2023-01-20T03:22:32.062Z,97769.63
2023-01-20T03:25:08.685Z,97760.36
2023-01-20T03:27:42.251Z,97761.46
2023-01-20T03:30:17.597Z,97766.96
2023-01-20T03:32:52.586Z,97768.39
2023-01-20T03:35:25.747Z,97768.69
2023-01-20T03:37:58.651Z,97773.37
2023-01-20T03:40:35.373Z,97772.83
2023-01-20T03:43:13.718Z,97762.64
2023-01-20T03:45:55.882Z,97758.12
2023-01-20T03:48:35.424Z,97756.05
2023-01-20T03:51:15.247Z,97752.09
2023-01-20T03:53:54.697Z,97757.19
2023-01-20T03:56:33.238Z,97763.17
2023-01-20T03:59:09.265Z,97765.05
2023-01-20T04:01:45.779Z,97770.16
2023-01-20T04:04:20.982Z,97772.56
2023-01-20T04:06:54.256Z,97773.09
2023-01-20T04:09:32.227Z,97774.73
2023-01-20T04:12:04.851Z,97777.31
2023-01-20T04:14:39.482Z,97780.17
2023-01-20T04:17:12.587Z,97780.48
2023-01-20T04:19:45.151Z,97783.55
2023-01-20T04:22:26.835Z,97788.52
2023-01-20T04:25:03.000Z,97796.75
2023-01-20T04:27:35.982Z,97797.39
2023-01-20T04:30:10.216Z,97795.42
2023-01-20T04:32:42.769Z,97795.71
2023-01-20T04:35:17.609Z,97794.19
2023-01-20T04:37:50.392Z,97789.61
2023-01-20T04:40:22.930Z,97796.35
2023-01-20T04:42:55.474Z,97802.08
2023-01-20T04:45:28.160Z,97814.02
2023-01-20T04:48:00.634Z,97818.30
2023-01-20T04:50:41.099Z,97817.80
2023-01-20T04:53:17.098Z,97819.55
2023-01-20T04:55:49.865Z,97823.45
2023-01-20T04:58:22.251Z,97823.12
2023-01-20T05:00:54.721Z,97825.38
2023-01-20T05:03:27.095Z,97828.02
2023-01-20T05:05:59.572Z,97832.41
2023-01-20T05:08:32.276Z,97841.02
2023-01-20T05:11:04.906Z,97846.51
2023-01-20T05:13:39.463Z,97848.48
2023-01-20T05:16:12.870Z,97839.76
2023-01-20T05:18:45.548Z,97837.01
2023-01-20T05:21:18.135Z,97839.15
2023-01-20T05:23:50.564Z,97837.46
2023-01-20T05:26:23.303Z,97838.48
2023-01-20T05:28:55.898Z,97842.98
2023-01-20T05:31:28.241Z,97843.71
2023-01-20T05:34:00.843Z,97846.72
2023-01-20T05:36:33.217Z,97852.48
2023-01-20T05:39:05.640Z,97859.38
2023-01-20T05:41:38.108Z,97868.05
2023-01-20T05:44:10.510Z,97870.56
2023-01-20T05:46:43.238Z,97879.08
2023-01-20T05:49:15.678Z,97883.61
2023-01-20T05:51:47.881Z,97891.16
2023-01-20T05:54:20.322Z,97896.58
2023-01-20T05:56:53.094Z,97897.90
2023-01-20T05:59:25.949Z,97896.91
2023-01-20T06:01:58.930Z,97900.08
2023-01-20T06:04:31.434Z,97894.61
2023-01-20T06:07:04.020Z,97895.23
2023-01-20T06:09:36.298Z,97894.99
2023-01-20T06:12:09.091Z,97895.97
2023-01-20T06:14:41.455Z,97897.88
2023-01-20T06:17:13.759Z,97901.20
2023-01-20T06:19:46.264Z,97896.61
2023-01-20T06:22:19.791Z,97903.53
2023-01-20T06:24:52.201Z,97910.20
2023-01-20T06:27:24.471Z,97913.85
2023-01-20T06:29:56.796Z,97914.08
2023-01-20T06:32:29.041Z,97918.09
2023-01-20T06:35:01.279Z,97925.18
2023-01-20T06:37:33.747Z,97929.86
2023-01-20T06:40:06.759Z,97927.83
2023-01-20T06:42:38.974Z,97931.27
2023-01-20T06:45:13.109Z,97933.11
2023-01-20T06:47:49.177Z,97936.54
2023-01-20T06:50:22.150Z,97942.42
2023-01-20T06:52:56.930Z,97943.73
2023-01-20T06:55:29.458Z,97940.76
2023-01-20T06:58:03.953Z,97947.30
2023-01-20T07:00:37.692Z,97951.25
2023-01-20T07:03:13.964Z,97957.98
2023-01-20T07:05:53.441Z,97966.85
2023-01-20T07:08:25.892Z,97972.84
2023-01-20T07:10:58.333Z,97981.55
2023-01-20T07:13:30.553Z,97983.10
2023-01-20T07:16:02.942Z,97981.02
2023-01-20T07:18:35.621Z,97986.17
2023-01-20T07:21:08.630Z,97984.80
2023-01-20T07:23:41.020Z,97983.06
2023-01-20T07:26:15.887Z,97985.87
2023-01-20T07:28:48.997Z,97995.91
2023-01-20T07:31:23.006Z,98001.65
2023-01-20T07:33:57.453Z,98002.86
2023-01-20T07:36:30.882Z,97999.48
2023-01-20T07:39:03.161Z,98005.84
2023-01-20T07:41:35.905Z,98005.62
2023-01-20T07:44:08.373Z,98014.36
2023-01-20T07:46:43.339Z,98015.58
2023-01-20T07:49:16.840Z,98008.05
2023-01-20T07:51:50.362Z,98008.11
2023-01-20T07:54:23.304Z,98012.11
2023-01-20T07:56:55.806Z,98009.48
2023-01-20T07:59:29.191Z,98009.90
2023-01-20T08:02:03.941Z,98013.16
2023-01-20T08:04:37.451Z,98013.18
2023-01-20T08:07:09.936Z,98014.05
2023-01-20T08:09:44.104Z,98014.88
2023-01-20T08:12:16.602Z,98016.11
2023-01-20T08:14:48.976Z,98017.54
2023-01-20T08:17:21.298Z,98022.08
2023-01-20T08:19:53.580Z,98023.66
2023-01-20T08:22:26.627Z,98029.73
2023-01-20T08:24:58.896Z,98026.21
2023-01-20T08:27:31.250Z,98033.27
2023-01-20T08:30:03.516Z,98035.02
2023-01-20T08:32:36.331Z,98036.27
2023-01-20T08:35:09.407Z,98029.29
2023-01-20T08:37:41.917Z,98032.48
2023-01-20T08:40:15.138Z,98038.66
2023-01-20T08:46:07.149Z,98042.27
2023-01-20T08:48:41.306Z,98044.78
2023-01-20T08:51:17.033Z,98048.30
2023-01-20T08:53:52.537Z,98047.02
2023-01-20T08:56:25.120Z,98049.09
2023-01-20T08:58:58.756Z,98048.70
2023-01-20T09:01:36.038Z,98052.98
2023-01-20T09:04:09.943Z,98057.60
2023-01-20T09:06:48.717Z,98065.34
2023-01-20T09:09:22.896Z,98074.68
2023-01-20T09:11:55.299Z,98080.80
2023-01-20T09:14:28.371Z,98083.89
2023-01-20T09:17:01.814Z,98084.73
2023-01-20T09:19:34.163Z,98090.77
2023-01-20T09:22:08.838Z,98088.80
2023-01-20T09:24:41.511Z,98082.99
2023-01-20T09:27:13.819Z,98083.83
2023-01-20T09:29:48.355Z,98090.43
2023-01-20T09:32:20.965Z,98090.40
2023-01-20T09:34:53.401Z,98089.80
2023-01-20T09:37:44.198Z,98088.34
2023-01-20T09:40:47.847Z,98087.39
2023-01-20T09:43:58.699Z,98084.73
2023-01-20T09:47:10.550Z,98084.88
2023-01-20T09:50:13.181Z,98082.89
2023-01-20T09:53:04.952Z,98083.10
2023-01-20T09:55:45.187Z,98081.74
2023-01-20T09:58:27.004Z,98083.96
2023-01-20T10:01:09.881Z,98081.48
2023-01-20T10:03:47.849Z,98077.54
2023-01-20T10:06:26.654Z,98072.67
2023-01-20T10:09:06.201Z,98068.90
2023-01-20T10:11:39.856Z,98062.54
2023-01-20T10:14:21.971Z,98053.91
2023-01-20T10:17:01.325Z,98050.09
2023-01-20T10:19:42.460Z,98048.27
2023-01-20T10:22:19.169Z,98050.04
2023-01-20T10:24:58.321Z,98049.51
2023-01-20T10:27:34.544Z,98049.71
2023-01-20T10:30:13.612Z,98043.14
2023-01-20T10:32:53.973Z,98043.46
2023-01-20T10:35:30.450Z,98039.63
2023-01-20T10:38:04.547Z,98044.35
2023-01-20T10:40:42.431Z,98044.86
2023-01-20T10:43:17.276Z,98046.11
2023-01-20T10:46:12.470Z,98038.39
2023-01-20T10:49:01.306Z,98035.77
2023-01-20T10:51:39.933Z,98029.85
2023-01-20T10:54:30.318Z,98031.96
2023-01-20T10:57:07.298Z,98028.23
2023-01-20T10:59:43.727Z,98033.10
2023-01-20T11:02:21.044Z,98040.09
2023-01-20T11:04:58.918Z,98040.32
2023-01-20T11:07:33.743Z,98046.29
2023-01-20T11:10:17.912Z,98048.36
2023-01-20T11:12:55.038Z,98049.45
2023-01-20T11:15:30.573Z,98052.95
2023-01-20T11:18:26.551Z,98049.60
2023-01-20T11:21:02.264Z,98043.84
2023-01-20T11:23:41.655Z,98044.73
2023-01-20T11:26:25.629Z,98044.48
2023-01-20T11:29:05.376Z,98043.14
2023-01-20T11:31:42.585Z,98045.63
2023-01-20T11:34:25.553Z,98046.89
2023-01-20T11:37:18.105Z,98044.08
2023-01-20T11:40:06.083Z,98043.03
2023-01-20T11:42:47.461Z,98042.19
2023-01-20T11:45:29.320Z,98033.73
2023-01-20T11:48:16.860Z,98030.90
2023-01-20T11:50:56.326Z,98026.19
2023-01-20T11:53:31.793Z,98018.36
2023-01-20T11:56:16.570Z,98016.51
2023-01-20T11:58:58.413Z,98014.12
2023-01-20T12:01:50.633Z,98013.31
2023-01-20T12:04:32.457Z,98019.64
2023-01-20T12:07:08.527Z,98017.85
2023-01-20T12:09:45.251Z,98017.65
2023-01-20T12:12:34.030Z,98014.84
2023-01-20T12:15:12.355Z,98017.73
2023-01-20T12:17:53.716Z,98017.11
2023-01-20T12:20:45.624Z,98017.98
2023-01-20T12:23:34.071Z,98014.30
2023-01-20T12:26:07.992Z,98012.90
2023-01-20T12:28:49.044Z,98007.70
2023-01-20T12:31:25.453Z,98007.34
2023-01-20T12:34:02.361Z,98012.95
2023-01-20T12:37:06.762Z,98011.39
2023-01-20T12:40:08.730Z,98008.26
2023-01-20T12:43:07.993Z,98005.27
2023-01-20T12:46:06.296Z,98010.09
2023-01-20T12:48:53.980Z,98014.45
2023-01-20T12:51:39.752Z,98024.77
2023-01-20T12:54:47.715Z,98031.46
2023-01-20T12:57:34.329Z,98036.46
2023-01-20T13:00:44.122Z,98042.30
2023-01-20T13:03:41.887Z,98044.41
2023-01-20T13:06:39.737Z,98041.00
2023-01-20T13:09:28.275Z,98043.90
2023-01-20T13:12:15.172Z,98042.72
2023-01-20T13:14:50.298Z,98038.04
2023-01-20T13:17:30.561Z,98036.52
2023-01-20T13:20:06.133Z,98043.91
2023-01-20T13:22:39.505Z,98046.36
2023-01-20T13:25:20.171Z,98045.83
2023-01-20T13:27:54.699Z,98045.98
2023-01-20T13:30:48.445Z,98049.60
2023-01-20T13:33:33.827Z,98048.09
2023-01-20T13:36:18.427Z,98059.03
2023-01-20T13:38:52.716Z,98063.23
2023-01-20T13:41:52.353Z,98065.65
2023-01-20T13:44:40.267Z,98073.54
2023-01-20T13:47:53.128Z,98084.52
2023-01-20T13:50:28.331Z,98089.45
2023-01-20T13:53:15.360Z,98089.30
2023-01-20T13:56:10.933Z,98086.23
2023-01-20T13:58:43.301Z,98086.26
2023-01-20T14:01:15.823Z,98087.47
2023-01-20T14:04:04.915Z,98087.70
2023-01-20T14:06:46.038Z,98080.66
2023-01-20T14:09:22.845Z,98085.13
2023-01-20T14:11:57.323Z,98093.97
2023-01-20T14:14:29.733Z,98093.34
2023-01-20T14:17:05.642Z,98093.55
2023-01-20T14:19:38.635Z,98097.98
2023-01-20T14:22:25.041Z,98100.11
2023-01-20T14:25:00.897Z,98101.73
2023-01-20T14:27:37.574Z,98111.31
2023-01-20T14:30:21.657Z,98110.95
2023-01-20T14:32:56.796Z,98116.13
2023-01-20T14:35:33.546Z,98117.85
2023-01-20T14:38:06.150Z,98118.33
2023-01-20T14:40:40.376Z,98117.23
2023-01-20T14:43:19.767Z,98117.99
2023-01-20T14:45:53.547Z,98125.92
2023-01-20T14:48:34.776Z,98127.27
2023-01-20T14:51:07.593Z,98124.50
2023-01-20T14:53:39.974Z,98135.27
2023-01-20T14:56:20.881Z,98140.29
2023-01-20T14:58:58.335Z,98137.41
2023-01-20T15:01:30.897Z,98139.55
2023-01-20T15:04:06.153Z,98141.90
2023-01-20T15:06:38.774Z,98143.92
2023-01-20T15:09:35.377Z,98142.90
2023-01-20T15:12:36.356Z,98145.48
2023-01-20T15:15:20.739Z,98147.20
2023-01-20T15:18:18.035Z,98147.78
2023-01-20T15:21:03.831Z,98147.21
2023-01-20T15:23:45.955Z,98151.45
2023-01-20T15:26:28.837Z,98155.39
2023-01-20T15:29:01.477Z,98158.27
2023-01-20T15:31:35.122Z,98158.53
2023-01-20T15:34:07.487Z,98157.28
2023-01-20T15:36:40.314Z,98157.57
2023-01-20T15:39:14.570Z,98156.02
2023-01-20T15:41:48.899Z,98156.24
2023-01-20T15:44:21.339Z,98160.27
2023-01-20T15:46:57.297Z,98163.27
2023-01-20T15:49:30.475Z,98165.25
2023-01-20T15:52:02.752Z,98160.42
2023-01-20T15:54:35.614Z,98161.08
2023-01-20T15:57:13.439Z,98161.88
2023-01-20T15:59:49.806Z,98157.92
2023-01-20T16:02:24.521Z,98162.96
2023-01-20T16:04:57.040Z,98161.38
2023-01-20T16:07:30.532Z,98157.75
2023-01-20T16:10:02.948Z,98162.21
2023-01-20T16:12:35.276Z,98164.54
2023-01-20T16:15:10.817Z,98158.48
2023-01-20T16:17:43.967Z,98156.72
2023-01-20T16:20:22.923Z,98157.27
2023-01-20T16:22:56.874Z,98159.14
2023-01-20T16:25:30.337Z,98163.79
2023-01-20T16:28:04.406Z,98159.64
2023-01-20T16:30:36.702Z,98160.14
2023-01-20T16:33:18.725Z,98159.52
2023-01-20T16:35:54.070Z,98165.06
2023-01-20T16:38:27.330Z,98167.47
2023-01-20T16:41:04.703Z,98172.98
2023-01-20T16:43:41.005Z,98179.80
2023-01-20T16:46:16.412Z,98181.64
2023-01-20T16:48:49.221Z,98179.44
2023-01-20T16:51:27.323Z,98179.10
2023-01-20T16:54:00.834Z,98180.25
2023-01-20T16:56:35.311Z,98181.75
2023-01-20T16:59:08.214Z,98185.64
2023-01-20T17:01:41.188Z,98192.89
2023-01-20T17:04:13.492Z,98191.23
2023-01-20T17:06:45.885Z,98199.54
2023-01-20T17:09:18.337Z,98196.95
2023-01-20T17:11:51.254Z,98196.36
2023-01-20T17:14:23.562Z,98199.02
2023-01-20T17:16:59.926Z,98199.29
2023-01-20T17:19:32.478Z,98197.09
2023-01-20T17:22:04.891Z,98196.03
2023-01-20T17:24:39.348Z,98199.36
2023-01-20T17:27:11.710Z,98199.39
2023-01-20T17:29:44.029Z,98199.34
2023-01-20T17:32:18.309Z,98200.85
2023-01-20T17:34:51.784Z,98201.76
2023-01-20T17:37:24.159Z,98200.08
2023-01-20T17:39:56.637Z,98199.83
2023-01-20T17:42:28.981Z,98201.06
2023-01-20T17:45:03.546Z,98204.59
2023-01-20T17:47:35.949Z,98204.79
2023-01-20T17:50:09.943Z,98207.41
2023-01-20T17:52:42.401Z,98211.49
2023-01-20T17:55:15.899Z,98212.56
2023-01-20T17:57:48.322Z,98209.37
2023-01-20T18:00:22.314Z,98206.86
2023-01-20T18:02:58.212Z,98205.32
2023-01-20T18:05:31.553Z,98200.88
2023-01-20T18:08:04.290Z,98205.58
2023-01-20T18:10:39.640Z,98202.90
2023-01-20T18:13:11.898Z,98202.88
2023-01-20T18:15:44.362Z,98199.64
2023-01-20T18:18:16.854Z,98197.47
2023-01-20T18:20:49.590Z,98198.74
2023-01-20T18:23:21.889Z,98200.85
2023-01-20T18:25:58.653Z,98205.63
2023-01-20T18:28:37.019Z,98201.60
2023-01-20T18:31:13.851Z,98198.09
2023-01-20T18:33:48.212Z,98198.14
2023-01-20T18:36:23.685Z,98200.66
2023-01-20T18:38:59.051Z,98199.24
2023-01-20T18:41:36.405Z,98196.19
2023-01-20T18:44:10.125Z,98194.33
2023-01-20T18:46:42.891Z,98196.02
2023-01-20T18:49:16.175Z,98193.68
2023-01-20T18:51:48.527Z,98194.43
2023-01-20T18:54:22.179Z,98195.36
2023-01-20T18:56:54.582Z,98191.70
2023-01-20T18:59:27.082Z,98189.39
2023-01-20T19:01:59.591Z,98187.23
2023-01-20T19:04:33.648Z,98185.05
2023-01-20T19:07:06.098Z,98182.20
2023-01-20T19:09:38.368Z,98180.96
2023-01-20T19:12:14.066Z,98181.41
2023-01-20T19:14:46.701Z,98176.60
2023-01-20T19:17:18.950Z,98172.25
2023-01-20T19:19:51.324Z,98168.79
2023-01-20T19:22:23.607Z,98163.80
2023-01-20T19:24:56.004Z,98164.73
2023-01-20T19:27:28.415Z,98164.88
2023-01-20T19:30:01.146Z,98160.23
2023-01-20T19:32:33.528Z,98157.10
2023-01-20T19:35:06.227Z,98162.25
2023-01-20T19:37:38.836Z,98157.70
2023-01-20T19:40:13.447Z,98158.57
2023-01-20T19:42:48.904Z,98156.61
2023-01-20T19:45:26.952Z,98156.59
2023-01-20T19:48:04.546Z,98159.60
2023-01-20T19:50:37.566Z,98156.26
2023-01-20T19:53:10.358Z,98156.27
2023-01-20T19:55:42.794Z,98158.30
2023-01-20T19:58:15.963Z,98158.07
2023-01-20T20:00:48.274Z,98156.28
2023-01-20T20:03:23.378Z,98155.77
2023-01-20T20:05:57.419Z,98147.59
2023-01-20T20:08:29.817Z,98148.44
2023-01-20T20:11:02.839Z,98155.67
2023-01-20T20:13:38.355Z,98151.95
2023-01-20T20:16:12.657Z,98150.16
2023-01-20T20:18:44.973Z,98153.53
2023-01-20T20:21:17.381Z,98152.10
2023-01-20T20:23:52.905Z,98147.84
2023-01-20T20:26:29.462Z,98148.06
2023-01-20T20:29:04.289Z,98154.57
2023-01-20T20:31:40.404Z,98158.61
2023-01-20T20:34:16.073Z,98161.33
2023-01-20T20:36:50.248Z,98162.33
2023-01-20T20:39:22.712Z,98160.23
2023-01-20T20:41:56.527Z,98162.65
2023-01-20T20:44:29.170Z,98163.42
2023-01-20T20:47:01.641Z,98161.54
2023-01-20T20:49:33.975Z,98155.35
2023-01-20T20:52:08.792Z,98151.63
2023-01-20T20:54:44.150Z,98138.46
2023-01-20T20:57:16.653Z,98134.46
2023-01-20T20:59:59.197Z,98131.80
2023-01-20T21:02:35.021Z,98130.91
2023-01-20T21:05:09.293Z,98132.49
2023-01-20T21:07:41.924Z,98136.70
2023-01-20T21:10:17.073Z,98136.54
2023-01-20T21:12:50.605Z,98133.20
2023-01-20T21:15:23.293Z,98128.98
2023-01-20T21:17:55.727Z,98124.66
2023-01-20T21:20:32.813Z,98128.91
2023-01-20T21:23:05.241Z,98128.17
2023-01-20T21:25:38.782Z,98127.78
2023-01-20T21:28:16.626Z,98129.42
2023-01-20T21:31:02.561Z,98131.46
2023-01-20T21:33:38.256Z,98132.91
2023-01-20T21:36:13.230Z,98132.16
2023-01-20T21:38:46.709Z,98134.88
2023-01-20T21:41:24.030Z,98132.07
2023-01-20T21:44:13.897Z,98128.05
2023-01-20T21:46:46.547Z,98125.11
2023-01-20T21:49:36.720Z,98118.11
2023-01-20T21:52:28.227Z,98108.00
2023-01-20T21:55:00.832Z,98098.08
2023-01-20T21:57:33.769Z,98092.73
2023-01-20T22:00:09.197Z,98081.85
2023-01-20T22:02:45.831Z,98081.31
2023-01-20T22:05:20.743Z,98083.79
2023-01-20T22:07:52.984Z,98083.58
2023-01-20T22:10:29.485Z,98082.43
2023-01-20T22:13:03.162Z,98080.58
2023-01-20T22:15:40.286Z,98078.38
2023-01-20T22:18:12.699Z,98076.68
2023-01-20T22:20:45.522Z,98077.05
2023-01-20T22:23:17.923Z,98078.45
2023-01-20T22:25:53.578Z,98077.57
2023-01-20T22:28:26.284Z,98083.11
2023-01-20T22:31:05.352Z,98085.14
2023-01-20T22:33:39.958Z,98081.80
2023-01-20T22:36:12.817Z,98082.56
2023-01-20T22:38:46.045Z,98081.23
2023-01-20T22:41:19.163Z,98081.73
2023-01-20T22:43:53.407Z,98075.46
2023-01-20T22:46:28.055Z,98070.35
2023-01-20T22:49:01.086Z,98070.61
2023-01-20T22:51:33.798Z,98079.08
2023-01-20T22:54:07.233Z,98079.55
2023-01-20T22:56:40.459Z,98075.27
2023-01-20T22:59:15.162Z,98073.75
2023-01-20T23:01:47.583Z,98072.27
2023-01-20T23:04:20.033Z,98062.77
2023-01-20T23:06:52.397Z,98064.92
2023-01-20T23:09:24.773Z,98067.77
2023-01-20T23:11:57.525Z,98071.86
2023-01-20T23:14:44.325Z,98070.27
2023-01-20T23:17:16.769Z,98074.05
2023-01-20T23:19:49.133Z,98072.27
2023-01-20T23:22:21.673Z,98071.92
2023-01-20T23:24:53.908Z,98076.26
2023-01-20T23:27:26.219Z,98074.89
2023-01-20T23:29:58.900Z,98072.59
2023-01-20T23:32:31.244Z,98074.27
2023-01-20T23:35:03.849Z,98073.23
2023-01-20T23:37:36.856Z,98066.70
2023-01-20T23:40:11.944Z,98073.48
2023-01-20T23:42:44.730Z,98071.41
2023-01-20T23:45:17.676Z,98071.42
2023-01-20T23:47:51.623Z,98071.36
2023-01-20T23:50:26.321Z,98075.95
2023-01-20T23:53:01.995Z,98073.84
2023-01-20T23:55:34.530Z,98076.04
2023-01-20T23:58:07.249Z,98074.87
